createdAt,value
2022-09-05T00:00:11.830Z,0.40
2022-09-05T00:03:13.816Z,0.40
2022-09-05T00:06:02.516Z,0.65
2022-09-05T00:08:51.145Z,1.10
2022-09-05T00:11:43.967Z,0.20
2022-09-05T00:15:14.471Z,0.55
2022-09-05T00:19:01.490Z,0.17
2022-09-05T00:24:24.923Z,2.10
2022-09-05T00:24:28.312Z,0.50
2022-09-05T00:27:03.618Z,0.55
2022-09-05T00:31:08.715Z,1.17
2022-09-05T00:33:26.291Z,0.60
2022-09-05T00:35:53.523Z,0.63
2022-09-05T00:38:29.116Z,1.30
2022-09-05T00:41:14.708Z,0.75
2022-09-05T00:43:45.343Z,1.00
2022-09-05T00:46:17.967Z,0.60
2022-09-05T00:49:13.748Z,0.30
2022-09-05T00:51:41.428Z,0.50
2022-09-05T00:55:06.763Z,0.90
2022-09-05T00:57:43.284Z,0.95
2022-09-05T01:00:32.633Z,0.45
2022-09-05T01:03:16.582Z,0.77
2022-09-05T01:05:50.340Z,0.82
2022-09-05T01:08:25.154Z,0.40
2022-09-05T01:11:11.073Z,0.68
2022-09-05T01:13:44.796Z,0.52
2022-09-05T01:16:29.487Z,0.50
2022-09-05T01:19:19.615Z,1.38
2022-09-05T01:21:58.040Z,2.10
2022-09-05T01:24:54.666Z,0.50
2022-09-05T01:28:09.927Z,0.75
2022-09-05T01:30:32.210Z,0.77
2022-09-05T01:33:37.583Z,0.82
2022-09-05T01:36:10.377Z,0.95
2022-09-05T01:38:37.765Z,0.85
2022-09-05T01:41:18.514Z,2.00
2022-09-05T01:44:24.035Z,0.65
2022-09-05T01:46:51.579Z,0.73
2022-09-05T01:49:27.375Z,0.65
2022-09-05T01:52:20.247Z,0.47
2022-09-05T01:55:03.130Z,1.45
2022-09-05T01:57:53.174Z,0.68
2022-09-05T02:00:35.143Z,0.70
2022-09-05T02:03:34.235Z,0.50
2022-09-05T02:06:26.832Z,0.50
2022-09-05T02:09:10.302Z,1.45
2022-09-05T02:12:15.981Z,0.30
2022-09-05T02:14:45.466Z,1.80
2022-09-05T02:17:50.582Z,0.95
2022-09-05T02:20:36.543Z,1.30
2022-09-05T02:23:41.132Z,0.50
2022-09-05T02:26:24.357Z,0.73
2022-09-05T02:29:07.082Z,1.27
2022-09-05T02:31:40.758Z,0.50
2022-09-05T02:34:38.019Z,1.73
2022-09-05T02:37:38.524Z,0.40
2022-09-05T02:45:07.259Z,1.15
2022-09-05T02:45:24.094Z,2.42
2022-09-05T02:46:16.469Z,0.70
2022-09-05T02:48:56.443Z,1.20
2022-09-05T02:57:28.442Z,0.40
2022-09-05T02:57:47.028Z,0.95
2022-09-05T02:58:06.960Z,1.08
2022-09-05T03:00:48.141Z,0.90
2022-09-05T03:06:34.465Z,1.80
2022-09-05T03:09:31.634Z,0.90
2022-09-05T03:12:29.566Z,1.60
2022-09-05T03:15:23.508Z,1.00
2022-09-05T03:18:20.587Z,0.73
2022-09-05T03:21:13.290Z,0.52
2022-09-05T03:24:02.356Z,0.52
2022-09-05T03:27:00.687Z,0.73
2022-09-05T03:29:45.297Z,1.00
2022-09-05T03:32:49.243Z,0.82
2022-09-05T03:35:19.638Z,0.93
2022-09-05T03:37:47.266Z,0.70
2022-09-05T03:40:23.801Z,0.65
2022-09-05T03:43:30.063Z,1.40
2022-09-05T03:46:09.741Z,0.73
2022-09-05T03:48:47.362Z,2.08
2022-09-05T03:57:08.930Z,1.17
2022-09-05T03:57:26.008Z,0.73
2022-09-05T03:57:42.783Z,1.05
2022-09-05T04:00:24.065Z,0.93
2022-09-05T04:08:09.487Z,0.47
2022-09-05T04:08:18.855Z,0.65
2022-09-05T04:09:50.175Z,1.08
2022-09-05T04:12:19.901Z,0.65
2022-09-05T04:15:07.902Z,1.13
2022-09-05T04:17:41.130Z,1.05
2022-09-05T04:20:12.917Z,1.20
2022-09-05T04:23:00.674Z,5.00
2022-09-05T04:25:46.305Z,1.65
2022-09-05T04:28:36.686Z,0.88
2022-09-05T04:31:44.464Z,3.67
2022-09-05T04:34:36.863Z,1.15
2022-09-05T04:37:48.443Z,0.93
2022-09-05T04:40:36.844Z,0.68
2022-09-05T04:43:29.710Z,1.17
2022-09-05T04:46:08.529Z,0.80
2022-09-05T04:48:49.274Z,0.43
2022-09-05T04:52:00.708Z,0.70
2022-09-05T04:54:38.086Z,0.88
2022-09-05T04:57:14.056Z,0.68
2022-09-05T05:05:22.284Z,0.38
2022-09-05T05:06:14.077Z,0.30
2022-09-05T05:06:17.746Z,0.50
2022-09-05T05:08:57.550Z,0.20
2022-09-05T05:17:58.022Z,0.00
2022-09-05T05:18:10.551Z,0.43
2022-09-05T05:18:15.972Z,0.57
2022-09-05T05:20:50.892Z,2.08
2022-09-05T05:23:28.410Z,0.15
2022-09-05T05:26:00.440Z,0.40
2022-09-05T05:28:49.585Z,0.63
2022-09-05T05:31:25.868Z,0.10
2022-09-05T05:33:58.993Z,0.00
2022-09-05T05:36:40.360Z,0.10
2022-09-05T05:39:21.531Z,0.32
2022-09-05T05:42:20.968Z,0.32
2022-09-05T05:44:56.190Z,0.10
2022-09-05T05:47:29.896Z,0.00
2022-09-05T05:50:30.014Z,0.10
2022-09-05T05:53:00.603Z,0.10
2022-09-05T05:55:52.159Z,0.03
2022-09-05T05:58:39.028Z,0.20
2022-09-05T06:01:32.975Z,0.43
2022-09-05T06:04:44.936Z,0.00
2022-09-05T06:10:57.371Z,0.10
2022-09-05T06:14:49.583Z,0.03
2022-09-05T06:15:02.808Z,0.00
2022-09-05T06:17:05.237Z,0.13
2022-09-05T06:22:07.084Z,0.10
2022-09-05T06:22:59.762Z,0.00
2022-09-05T06:25:50.310Z,0.00
2022-09-05T06:28:30.937Z,0.00
2022-09-05T06:31:33.761Z,0.80
2022-09-05T06:34:35.406Z,0.00
2022-09-05T06:37:18.779Z,0.17
2022-09-05T06:40:09.944Z,0.47
2022-09-05T06:42:43.755Z,0.10
2022-09-05T06:45:27.972Z,0.10
2022-09-05T06:48:14.402Z,0.15
2022-09-05T06:51:45.033Z,0.10
2022-09-05T06:54:35.964Z,0.10
2022-09-05T06:57:10.266Z,0.05
2022-09-05T07:00:22.049Z,0.65
2022-09-05T07:02:59.972Z,1.98
2022-09-05T07:05:45.046Z,0.10
2022-09-05T07:08:35.167Z,0.00
2022-09-05T07:11:18.373Z,0.00
2022-09-05T07:13:48.828Z,0.10
2022-09-05T07:16:38.035Z,0.10
2022-09-05T07:19:27.704Z,0.25
2022-09-05T07:22:46.302Z,0.10
2022-09-05T07:25:18.246Z,0.45
2022-09-05T07:28:28.704Z,1.35
2022-09-05T07:30:49.835Z,0.40
2022-09-05T07:33:22.993Z,0.05
2022-09-05T07:35:51.792Z,0.30
2022-09-05T07:38:26.500Z,0.10
2022-09-05T07:41:29.019Z,0.28
2022-09-05T07:44:06.216Z,0.05
2022-09-05T07:46:38.879Z,0.73
2022-09-05T07:49:14.689Z,0.40
2022-09-05T07:56:46.588Z,0.00
2022-09-05T07:57:04.919Z,0.43
2022-09-05T07:57:51.774Z,0.00
2022-09-05T08:00:26.754Z,0.20
2022-09-05T08:03:01.200Z,0.05
2022-09-05T08:05:39.433Z,0.15
2022-09-05T08:08:12.554Z,0.30
2022-09-05T08:11:24.658Z,0.10
2022-09-05T08:14:44.828Z,0.00
2022-09-05T08:16:53.990Z,0.17
2022-09-05T08:19:46.582Z,0.22
2022-09-05T08:22:22.065Z,0.28
2022-09-05T08:25:22.309Z,0.40
2022-09-05T08:28:25.500Z,0.25
2022-09-05T08:31:11.424Z,0.00
2022-09-05T08:33:39.330Z,0.10
2022-09-05T08:36:06.945Z,0.15
2022-09-05T08:38:40.701Z,0.28
2022-09-05T08:41:16.683Z,0.03
2022-09-05T08:46:36.684Z,1.17
2022-09-05T08:46:52.860Z,0.35
2022-09-05T08:49:37.906Z,0.00
2022-09-05T08:52:22.839Z,0.10
2022-09-05T08:55:08.743Z,0.05
2022-09-05T08:58:13.568Z,0.10
2022-09-05T09:00:56.420Z,0.30
2022-09-05T09:04:06.816Z,0.28
2022-09-05T09:07:47.048Z,0.32
2022-09-05T09:10:22.795Z,0.30
2022-09-05T09:13:15.440Z,0.10
2022-09-05T09:15:47.880Z,0.00
2022-09-05T09:18:18.045Z,0.20
2022-09-05T09:21:22.328Z,0.30
2022-09-05T09:24:04.621Z,0.30
2022-09-05T09:29:10.329Z,0.03
2022-09-05T09:32:01.448Z,1.50
2022-09-05T09:34:36.673Z,0.85
2022-09-05T09:37:51.783Z,0.10
2022-09-05T09:40:20.268Z,0.20
2022-09-05T09:42:54.032Z,0.43
2022-09-05T09:45:41.362Z,0.10
2022-09-05T09:48:12.552Z,0.63
2022-09-05T09:51:08.527Z,0.52
2022-09-05T09:53:58.026Z,0.52
2022-09-05T09:56:50.319Z,1.75
2022-09-05T09:59:34.310Z,0.90
2022-09-05T10:04:30.917Z,0.57
2022-09-05T10:10:50.462Z,0.00
2022-09-05T10:11:08.727Z,0.30
2022-09-05T10:11:53.174Z,1.55
2022-09-05T10:14:59.462Z,0.10
2022-09-05T10:17:42.916Z,0.25
2022-09-05T10:20:29.562Z,0.30
2022-09-05T10:23:30.103Z,0.00
2022-09-05T10:26:09.671Z,0.10
2022-09-05T10:29:11.744Z,0.43
2022-09-05T10:35:08.728Z,0.10
2022-09-05T10:35:39.805Z,0.08
2022-09-05T10:38:11.535Z,0.08
2022-09-05T10:41:08.113Z,0.45
2022-09-05T10:43:33.606Z,1.77
2022-09-05T10:46:50.077Z,0.50
2022-09-05T10:49:24.517Z,0.13
2022-09-05T10:54:53.324Z,0.10
2022-09-05T10:57:44.012Z,0.38
2022-09-05T11:02:18.871Z,0.00
2022-09-05T11:03:44.308Z,0.08
2022-09-05T11:06:24.604Z,0.30
2022-09-05T11:09:16.234Z,0.00
2022-09-05T11:11:52.436Z,0.15
2022-09-05T11:14:35.977Z,1.25
2022-09-05T11:17:11.298Z,0.10
2022-09-05T11:19:45.476Z,0.00
2022-09-05T11:22:23.173Z,0.32
2022-09-05T11:25:00.897Z,0.20
2022-09-05T11:27:43.081Z,0.28
2022-09-05T11:30:30.057Z,0.03
2022-09-05T11:39:50.565Z,0.00
2022-09-05T11:40:06.904Z,0.00
2022-09-05T11:40:09.608Z,0.10
2022-09-05T11:42:28.581Z,0.10
2022-09-05T11:45:05.362Z,0.20
2022-09-05T11:48:00.657Z,0.22
2022-09-05T11:51:03.065Z,0.28
2022-09-05T11:53:39.603Z,0.05
2022-09-05T11:56:28.778Z,0.50
2022-09-05T11:59:33.844Z,0.30
2022-09-05T12:02:44.208Z,0.10
2022-09-05T12:08:41.243Z,0.20
2022-09-05T12:11:43.463Z,0.13
2022-09-05T12:14:42.472Z,0.10
2022-09-05T12:17:41.915Z,0.00
2022-09-05T12:20:17.110Z,0.00
2022-09-05T12:23:00.942Z,0.20
2022-09-05T12:27:42.034Z,0.38
2022-09-05T12:29:33.778Z,0.00
2022-09-05T12:33:58.040Z,0.00
2022-09-05T12:36:05.167Z,0.00
2022-09-05T12:40:48.161Z,0.00
2022-09-05T12:41:35.078Z,0.10
2022-09-05T12:41:40.967Z,2.08
2022-09-05T12:43:57.428Z,0.10
2022-09-05T12:46:28.018Z,0.00
2022-09-05T12:49:07.478Z,0.05
2022-09-05T12:51:46.039Z,0.10
2022-09-05T12:54:34.725Z,0.00
2022-09-05T13:00:03.961Z,0.10
2022-09-05T13:03:06.305Z,0.00
2022-09-05T13:03:37.915Z,0.38
2022-09-05T13:06:25.489Z,0.10
2022-09-05T13:09:02.146Z,0.00
2022-09-05T13:14:48.383Z,0.00
2022-09-05T13:15:07.546Z,1.20
2022-09-05T13:17:44.804Z,0.22
2022-09-05T13:20:36.625Z,0.10
2022-09-05T13:23:20.753Z,0.10
2022-09-05T13:26:05.849Z,0.00
2022-09-05T13:28:43.098Z,0.00
2022-09-05T13:37:54.660Z,0.00
2022-09-05T13:38:12.343Z,0.32
2022-09-05T13:39:59.905Z,0.00
2022-09-05T13:42:42.658Z,0.10
2022-09-05T13:45:18.840Z,0.10
2022-09-05T13:47:58.465Z,0.10
2022-09-05T13:50:41.377Z,0.40
2022-09-05T13:53:15.613Z,0.00
2022-09-05T13:55:53.004Z,0.30
2022-09-05T13:58:43.240Z,0.00
2022-09-05T14:01:37.896Z,0.20
2022-09-05T14:08:18.098Z,0.00
2022-09-05T14:11:23.984Z,0.00
2022-09-05T14:13:51.599Z,0.00
2022-09-05T14:16:27.298Z,0.00
2022-09-05T14:19:14.538Z,0.00
2022-09-05T14:21:44.335Z,0.45
2022-09-05T14:26:50.615Z,0.25
2022-09-05T14:36:32.134Z,0.10
2022-09-05T14:37:50.673Z,0.00
2022-09-05T14:38:09.785Z,0.00
2022-09-05T14:41:03.514Z,0.10
2022-09-05T14:43:48.888Z,0.00
2022-09-05T14:46:20.163Z,0.20
2022-09-05T14:49:09.776Z,0.52
2022-09-05T14:51:49.349Z,0.73
2022-09-05T15:02:41.493Z,0.00
2022-09-05T15:02:42.334Z,0.00
2022-09-05T15:03:16.720Z,0.00
2022-09-05T15:05:50.381Z,0.00
2022-09-05T15:09:53.668Z,0.10
2022-09-05T15:14:11.212Z,0.10
2022-09-05T15:16:43.809Z,0.00
2022-09-05T15:19:31.320Z,0.00
2022-09-05T15:22:31.945Z,0.93
2022-09-05T15:25:19.669Z,0.00
2022-09-05T15:27:49.641Z,0.10
2022-09-05T15:30:35.216Z,0.00
2022-09-05T15:33:12.713Z,0.00
2022-09-05T15:35:43.806Z,0.90
2022-09-05T15:38:27.748Z,0.10
2022-09-05T15:41:20.105Z,0.30
2022-09-05T15:43:59.936Z,0.00
2022-09-05T15:47:05.269Z,0.20
2022-09-05T15:49:50.816Z,0.80
2022-09-05T15:52:18.089Z,0.10
2022-09-05T15:54:56.267Z,0.10
2022-09-05T15:57:51.045Z,0.00
2022-09-05T16:00:31.736Z,0.00
2022-09-05T16:03:01.128Z,1.10
2022-09-05T16:10:29.195Z,0.47
2022-09-05T16:10:35.757Z,0.35
2022-09-05T16:12:16.893Z,0.43
2022-09-05T16:23:14.120Z,2.17
2022-09-05T16:23:32.254Z,0.60
2022-09-05T16:23:41.457Z,0.70
2022-09-05T16:26:30.639Z,0.60
2022-09-05T16:29:02.983Z,0.40
2022-09-05T16:31:50.255Z,0.60
2022-09-05T16:34:46.562Z,0.10
2022-09-05T16:37:19.456Z,0.05
2022-09-05T16:40:01.194Z,0.00
2022-09-05T16:42:48.096Z,0.57
2022-09-05T16:45:45.394Z,0.65
2022-09-05T16:48:30.981Z,1.00
2022-09-05T16:51:15.180Z,1.77
2022-09-05T16:53:59.982Z,1.00
2022-09-05T16:56:42.283Z,3.47
2022-09-05T17:02:07.665Z,0.75
2022-09-05T17:05:03.649Z,1.55
2022-09-05T17:08:13.399Z,0.65
2022-09-05T17:10:57.675Z,0.93
2022-09-05T17:13:52.779Z,0.55
2022-09-05T17:16:33.143Z,2.53
2022-09-05T17:19:02.211Z,3.60
2022-09-05T17:22:52.600Z,6.57
2022-09-05T17:29:26.613Z,4.20
2022-09-05T17:29:31.260Z,3.83
2022-09-05T17:32:56.628Z,3.15
2022-09-05T17:35:42.793Z,1.50
2022-09-05T17:38:39.020Z,0.90
2022-09-05T17:41:18.134Z,1.23
2022-09-05T17:43:58.230Z,3.92
2022-09-05T17:46:29.320Z,2.08
2022-09-05T17:49:16.149Z,2.22
2022-09-05T17:52:07.266Z,4.20
2022-09-05T17:54:35.200Z,3.03
2022-09-05T17:57:29.778Z,2.05
2022-09-05T18:00:03.831Z,0.52
2022-09-05T18:05:57.472Z,1.60
2022-09-05T18:08:45.756Z,1.95
2022-09-05T18:11:27.868Z,1.35
2022-09-05T18:14:05.643Z,2.72
2022-09-05T18:16:42.077Z,2.10
2022-09-05T18:19:34.707Z,1.00
2022-09-05T18:22:06.588Z,1.75
2022-09-05T18:24:48.325Z,5.68
2022-09-05T18:28:03.026Z,1.20
2022-09-05T18:30:28.288Z,0.90
2022-09-05T18:33:54.958Z,0.98
2022-09-05T18:35:55.669Z,6.18
2022-09-05T18:38:51.470Z,15.25
2022-09-05T18:41:25.066Z,22.73
2022-09-05T18:44:20.325Z,18.25
2022-09-05T18:46:51.815Z,12.25
2022-09-05T18:50:23.311Z,10.60
2022-09-05T18:52:30.979Z,9.88
2022-09-05T18:56:11.297Z,6.63
2022-09-05T18:58:22.159Z,6.45
2022-09-05T19:00:55.877Z,6.65
2022-09-05T19:03:27.305Z,6.53
2022-09-05T19:06:34.972Z,10.50
2022-09-05T19:09:14.158Z,7.00
2022-09-05T19:12:33.960Z,7.32
2022-09-05T19:15:14.259Z,4.18
2022-09-05T19:17:47.029Z,5.32
2022-09-05T19:20:31.876Z,5.00
2022-09-05T19:23:12.021Z,4.00
2022-09-05T19:25:46.001Z,3.85
2022-09-05T19:36:48.764Z,0.75
2022-09-05T19:36:50.520Z,1.02
2022-09-05T19:36:59.857Z,2.65
2022-09-05T19:37:38.308Z,1.33
2022-09-05T19:44:29.527Z,1.13
2022-09-05T19:47:44.518Z,0.13
2022-09-05T19:47:45.141Z,1.17
2022-09-05T19:48:34.953Z,0.70
2022-09-05T19:51:16.798Z,0.55
2022-09-05T19:54:04.081Z,1.08
2022-09-05T19:56:34.143Z,5.25
2022-09-05T19:59:02.107Z,1.77
2022-09-05T20:01:31.567Z,1.10
2022-09-05T20:04:00.683Z,0.82
2022-09-05T20:06:31.171Z,1.60
2022-09-05T20:09:16.587Z,1.60
2022-09-05T20:11:59.928Z,2.00
2022-09-05T20:14:32.383Z,1.27
2022-09-05T20:17:19.842Z,0.15
2022-09-05T20:19:47.374Z,1.10
2022-09-05T20:22:47.972Z,2.00
2022-09-05T20:25:35.016Z,0.80
2022-09-05T20:28:10.307Z,1.10
2022-09-05T20:30:45.147Z,0.90
2022-09-05T20:33:20.029Z,2.03
2022-09-05T20:40:02.515Z,1.42
2022-09-05T20:43:19.747Z,1.08
2022-09-05T20:43:24.764Z,2.13
2022-09-05T20:44:48.498Z,2.65
2022-09-05T20:53:32.429Z,1.50
2022-09-05T20:54:26.376Z,0.88
2022-09-05T20:54:31.641Z,1.70
2022-09-05T20:56:31.030Z,3.33
2022-09-05T20:58:58.978Z,2.30
2022-09-05T21:01:32.352Z,2.10
2022-09-05T21:04:05.677Z,1.92
2022-09-05T21:06:37.422Z,0.77
2022-09-05T21:09:17.779Z,3.60
2022-09-05T21:11:52.610Z,1.42
2022-09-05T21:14:21.819Z,1.10
2022-09-05T21:17:12.003Z,2.20
2022-09-05T21:19:52.055Z,1.13
2022-09-05T21:22:28.317Z,1.70
2022-09-05T21:25:19.431Z,0.95
2022-09-05T21:28:02.891Z,1.30
2022-09-05T21:30:36.242Z,1.85
2022-09-05T21:33:29.442Z,2.67
2022-09-05T21:36:12.530Z,2.95
2022-09-05T21:38:43.855Z,2.00
2022-09-05T21:41:14.403Z,1.50
2022-09-05T21:47:50.092Z,0.90
2022-09-05T21:47:50.849Z,1.27
2022-09-05T21:49:22.640Z,1.88
2022-09-05T21:51:51.852Z,1.73
2022-09-05T21:59:15.143Z,1.08
2022-09-05T21:59:29.950Z,2.28
2022-09-05T22:00:14.953Z,1.95
2022-09-05T22:02:43.283Z,0.95
2022-09-05T22:05:13.480Z,1.70
2022-09-05T22:07:41.212Z,2.13
2022-09-05T22:10:09.707Z,0.80
2022-09-05T22:12:38.841Z,0.75
2022-09-05T22:15:26.534Z,1.20
2022-09-05T22:18:17.002Z,1.42
2022-09-05T22:20:53.514Z,1.08
2022-09-05T22:23:36.083Z,0.40
2022-09-05T22:26:07.268Z,1.05
2022-09-05T22:28:38.632Z,0.50
2022-09-05T22:31:07.677Z,3.45
2022-09-05T22:33:36.520Z,1.15
2022-09-05T22:36:04.264Z,3.58
2022-09-05T22:38:33.328Z,0.65
2022-09-05T22:41:01.034Z,0.50
2022-09-05T22:43:33.460Z,1.58
2022-09-05T22:46:01.006Z,0.60
2022-09-05T22:48:28.812Z,0.68
2022-09-05T22:50:56.424Z,1.77
2022-09-05T22:53:24.000Z,0.82
2022-09-05T22:56:03.774Z,2.05
2022-09-05T22:58:36.743Z,0.70
2022-09-05T23:01:04.800Z,0.40
2022-09-05T23:03:33.369Z,0.47
2022-09-05T23:06:09.400Z,8.00
2022-09-05T23:08:36.924Z,0.70
2022-09-05T23:11:15.749Z,0.80
2022-09-05T23:13:43.630Z,0.98
2022-09-05T23:16:11.631Z,0.82
2022-09-05T23:18:39.527Z,2.20
2022-09-05T23:21:09.283Z,0.60
2022-09-05T23:23:38.131Z,1.33
2022-09-05T23:26:08.732Z,0.52
2022-09-05T23:28:43.080Z,0.50
2022-09-05T23:31:12.081Z,1.95
2022-09-05T23:33:41.903Z,0.60
2022-09-05T23:36:12.667Z,0.32
2022-09-05T23:38:42.329Z,1.20
2022-09-05T23:41:12.063Z,0.45
2022-09-05T23:43:39.708Z,0.73
2022-09-05T23:46:07.634Z,0.93
2022-09-05T23:48:35.555Z,2.53
2022-09-05T23:51:10.894Z,0.90
2022-09-05T23:53:39.029Z,1.27
2022-09-05T23:56:09.957Z,0.50
2022-09-05T23:58:38.687Z,0.57
